sensor_id;sensor_type;location;lat;lon;timestamp;pressure;altitude;pressure_sealevel;temperature;humidity
33075;BME280;19433;51.292;6.868;2022-10-31T00:00:18;100857.75;;;12.44;100.00
33075;BME280;19433;51.292;6.868;2022-10-31T00:02:43;100852.59;;;12.34;100.00
33075;BME280;19433;51.292;6.868;2022-10-31T00:05:08;100864.09;;;12.31;100.00
33075;BME280;19433;51.292;6.868;2022-10-31T00:07:33;100861.72;;;12.21;100.00
33075;BME280;19433;51.292;6.868;2022-10-31T00:09:59;100857.44;;;12.25;100.00
33075;BME280;19433;51.292;6.868;2022-10-31T00:12:25;100855.38;;;12.41;100.00
33075;BME280;19433;51.292;6.868;2022-10-31T00:14:51;100841.56;;;12.47;100.00
33075;BME280;19433;51.292;6.868;2022-10-31T00:17:16;100843.94;;;12.57;100.00
33075;BME280;19433;51.292;6.868;2022-10-31T00:19:41;100850.13;;;12.59;100.00
33075;BME280;19433;51.292;6.868;2022-10-31T00:22:06;100855.69;;;12.65;100.00
33075;BME280;19433;51.292;6.868;2022-10-31T00:24:32;100861.69;;;12.76;100.00
33075;BME280;19433;51.292;6.868;2022-10-31T00:26:57;100855.72;;;12.85;100.00
33075;BME280;19433;51.292;6.868;2022-10-31T00:29:22;100850.22;;;12.98;100.00
33075;BME280;19433;51.292;6.868;2022-10-31T00:31:47;100857.03;;;12.96;100.00
33075;BME280;19433;51.292;6.868;2022-10-31T00:34:13;100860.66;;;13.03;100.00
33075;BME280;19433;51.292;6.868;2022-10-31T00:36:38;100863.03;;;13.06;100.00
33075;BME280;19433;51.292;6.868;2022-10-31T00:39:03;100855.16;;;13.10;100.00
33075;BME280;19433;51.292;6.868;2022-10-31T00:41:28;100858.16;;;13.15;100.00
33075;BME280;19433;51.292;6.868;2022-10-31T00:43:54;100846.41;;;13.13;100.00
33075;BME280;19433;51.292;6.868;2022-10-31T00:46:20;100867.97;;;13.17;100.00
33075;BME280;19433;51.292;6.868;2022-10-31T00:48:45;100859.22;;;13.14;100.00
33075;BME280;19433;51.292;6.868;2022-10-31T00:51:10;100862.00;;;13.14;100.00
33075;BME280;19433;51.292;6.868;2022-10-31T00:53:36;100856.22;;;13.09;100.00
33075;BME280;19433;51.292;6.868;2022-10-31T00:56:01;100850.88;;;13.14;100.00
33075;BME280;19433;51.292;6.868;2022-10-31T00:58:26;100867.75;;;13.12;100.00
33075;BME280;19433;51.292;6.868;2022-10-31T01:00:51;100872.03;;;13.15;100.00
33075;BME280;19433;51.292;6.868;2022-10-31T01:03:23;100859.63;;;13.11;100.00
33075;BME280;19433;51.292;6.868;2022-10-31T01:06:19;100878.03;;;13.25;100.00
33075;BME280;19433;51.292;6.868;2022-10-31T01:08:46;100873.53;;;13.30;100.00
33075;BME280;19433;51.292;6.868;2022-10-31T01:11:15;100892.91;;;13.11;100.00
33075;BME280;19433;51.292;6.868;2022-10-31T01:13:41;100884.38;;;13.12;100.00
33075;BME280;19433;51.292;6.868;2022-10-31T01:16:07;100882.72;;;13.37;100.00
33075;BME280;19433;51.292;6.868;2022-10-31T01:18:33;100876.75;;;13.47;100.00
33075;BME280;19433;51.292;6.868;2022-10-31T01:23:25;100868.19;;;13.35;100.00
33075;BME280;19433;51.292;6.868;2022-10-31T01:25:59;100881.00;;;13.17;100.00
33075;BME280;19433;51.292;6.868;2022-10-31T01:28:24;100877.53;;;13.08;100.00
33075;BME280;19433;51.292;6.868;2022-10-31T01:30:49;100883.38;;;13.26;100.00
33075;BME280;19433;51.292;6.868;2022-10-31T01:33:14;100865.59;;;13.14;100.00
33075;BME280;19433;51.292;6.868;2022-10-31T01:35:40;100870.53;;;13.12;100.00
33075;BME280;19433;51.292;6.868;2022-10-31T01:38:05;100861.53;;;13.10;100.00
33075;BME280;19433;51.292;6.868;2022-10-31T01:40:31;100858.09;;;12.95;100.00
33075;BME280;19433;51.292;6.868;2022-10-31T01:42:56;100867.69;;;12.99;100.00
33075;BME280;19433;51.292;6.868;2022-10-31T01:45:21;100858.97;;;12.95;100.00
33075;BME280;19433;51.292;6.868;2022-10-31T01:47:48;100853.47;;;13.15;100.00
33075;BME280;19433;51.292;6.868;2022-10-31T01:50:42;100848.09;;;13.07;100.00
33075;BME280;19433;51.292;6.868;2022-10-31T01:53:11;100839.09;;;12.79;100.00
33075;BME280;19433;51.292;6.868;2022-10-31T01:55:41;100843.75;;;12.65;100.00
33075;BME280;19433;51.292;6.868;2022-10-31T01:58:11;100836.03;;;12.54;100.00
33075;BME280;19433;51.292;6.868;2022-10-31T02:00:39;100839.59;;;12.35;100.00
33075;BME280;19433;51.292;6.868;2022-10-31T02:03:07;100831.84;;;12.17;100.00
33075;BME280;19433;51.292;6.868;2022-10-31T02:05:32;100828.63;;;12.13;100.00
33075;BME280;19433;51.292;6.868;2022-10-31T02:08:06;100820.66;;;11.97;100.00
33075;BME280;19433;51.292;6.868;2022-10-31T02:10:34;100814.53;;;12.02;100.00
33075;BME280;19433;51.292;6.868;2022-10-31T02:13:03;100826.38;;;11.89;100.00
33075;BME280;19433;51.292;6.868;2022-10-31T02:15:30;100842.28;;;11.80;100.00
33075;BME280;19433;51.292;6.868;2022-10-31T02:17:56;100832.63;;;11.70;100.00
33075;BME280;19433;51.292;6.868;2022-10-31T02:20:24;100837.25;;;11.62;100.00
33075;BME280;19433;51.292;6.868;2022-10-31T02:23:23;100832.00;;;11.46;100.00
33075;BME280;19433;51.292;6.868;2022-10-31T02:29:10;100840.19;;;11.54;100.00
33075;BME280;19433;51.292;6.868;2022-10-31T02:31:46;100845.31;;;11.30;100.00
33075;BME280;19433;51.292;6.868;2022-10-31T02:34:19;100844.97;;;11.18;100.00
33075;BME280;19433;51.292;6.868;2022-10-31T02:39:18;100846.97;;;11.24;100.00
33075;BME280;19433;51.292;6.868;2022-10-31T02:42:16;100854.00;;;11.26;100.00
33075;BME280;19433;51.292;6.868;2022-10-31T02:45:01;100849.56;;;11.32;100.00
33075;BME280;19433;51.292;6.868;2022-10-31T02:47:34;100844.69;;;11.34;100.00
33075;BME280;19433;51.292;6.868;2022-10-31T02:50:06;100853.28;;;11.46;100.00
33075;BME280;19433;51.292;6.868;2022-10-31T02:52:33;100861.06;;;11.57;100.00
33075;BME280;19433;51.292;6.868;2022-10-31T02:55:10;100857.72;;;11.68;100.00
33075;BME280;19433;51.292;6.868;2022-10-31T02:57:37;100860.88;;;11.86;100.00
33075;BME280;19433;51.292;6.868;2022-10-31T03:00:07;100848.25;;;12.18;100.00
33075;BME280;19433;51.292;6.868;2022-10-31T03:05:10;100836.13;;;12.26;100.00
33075;BME280;19433;51.292;6.868;2022-10-31T03:10:19;100835.84;;;12.08;100.00
33075;BME280;19433;51.292;6.868;2022-10-31T03:13:01;100857.59;;;12.11;100.00
33075;BME280;19433;51.292;6.868;2022-10-31T03:15:32;100852.22;;;12.03;100.00
33075;BME280;19433;51.292;6.868;2022-10-31T03:18:12;100855.47;;;12.13;100.00
33075;BME280;19433;51.292;6.868;2022-10-31T03:20:45;100859.75;;;12.15;100.00
33075;BME280;19433;51.292;6.868;2022-10-31T03:23:15;100859.53;;;12.17;100.00
33075;BME280;19433;51.292;6.868;2022-10-31T03:25:42;100839.31;;;12.23;100.00
33075;BME280;19433;51.292;6.868;2022-10-31T03:28:11;100844.28;;;12.34;100.00
33075;BME280;19433;51.292;6.868;2022-10-31T03:30:41;100846.03;;;12.48;100.00
33075;BME280;19433;51.292;6.868;2022-10-31T03:33:11;100846.66;;;12.37;100.00
33075;BME280;19433;51.292;6.868;2022-10-31T03:35:42;100835.91;;;12.21;100.00
33075;BME280;19433;51.292;6.868;2022-10-31T03:38:10;100829.88;;;12.11;100.00
33075;BME280;19433;51.292;6.868;2022-10-31T03:40:37;100829.34;;;12.28;100.00
33075;BME280;19433;51.292;6.868;2022-10-31T03:43:10;100832.34;;;12.33;100.00
33075;BME280;19433;51.292;6.868;2022-10-31T03:45:44;100833.56;;;12.24;100.00
33075;BME280;19433;51.292;6.868;2022-10-31T03:48:10;100833.16;;;12.27;100.00
33075;BME280;19433;51.292;6.868;2022-10-31T03:51:08;100840.31;;;12.09;100.00
33075;BME280;19433;51.292;6.868;2022-10-31T03:56:40;100832.44;;;12.06;100.00
33075;BME280;19433;51.292;6.868;2022-10-31T03:59:30;100835.50;;;11.83;100.00
33075;BME280;19433;51.292;6.868;2022-10-31T04:02:00;100840.88;;;11.91;100.00
33075;BME280;19433;51.292;6.868;2022-10-31T04:04:28;100838.56;;;11.67;100.00
33075;BME280;19433;51.292;6.868;2022-10-31T04:06:56;100843.59;;;11.56;100.00
33075;BME280;19433;51.292;6.868;2022-10-31T04:09:25;100835.03;;;11.51;100.00
33075;BME280;19433;51.292;6.868;2022-10-31T04:11:53;100831.22;;;11.52;100.00
33075;BME280;19433;51.292;6.868;2022-10-31T04:14:20;100824.69;;;11.60;100.00
33075;BME280;19433;51.292;6.868;2022-10-31T04:16:47;100829.38;;;11.59;100.00
33075;BME280;19433;51.292;6.868;2022-10-31T04:19:12;100831.31;;;11.66;100.00
33075;BME280;19433;51.292;6.868;2022-10-31T04:21:39;100831.84;;;11.76;100.00
33075;BME280;19433;51.292;6.868;2022-10-31T04:24:05;100837.22;;;11.56;100.00
33075;BME280;19433;51.292;6.868;2022-10-31T04:26:30;100835.38;;;11.70;100.00
33075;BME280;19433;51.292;6.868;2022-10-31T04:28:55;100832.53;;;11.84;100.00
33075;BME280;19433;51.292;6.868;2022-10-31T04:31:21;100830.41;;;11.86;100.00
33075;BME280;19433;51.292;6.868;2022-10-31T04:33:46;100830.56;;;11.78;100.00
33075;BME280;19433;51.292;6.868;2022-10-31T04:36:11;100826.78;;;11.86;100.00
33075;BME280;19433;51.292;6.868;2022-10-31T04:38:36;100828.09;;;11.90;100.00
33075;BME280;19433;51.292;6.868;2022-10-31T04:41:02;100827.47;;;11.94;100.00
33075;BME280;19433;51.292;6.868;2022-10-31T04:43:27;100819.50;;;11.78;100.00
33075;BME280;19433;51.292;6.868;2022-10-31T04:45:52;100839.13;;;11.83;100.00
33075;BME280;19433;51.292;6.868;2022-10-31T04:48:18;100830.56;;;11.78;100.00
33075;BME280;19433;51.292;6.868;2022-10-31T04:50:43;100834.28;;;11.64;100.00
33075;BME280;19433;51.292;6.868;2022-10-31T04:53:08;100825.16;;;11.70;100.00
33075;BME280;19433;51.292;6.868;2022-10-31T04:55:35;100814.63;;;11.52;100.00
33075;BME280;19433;51.292;6.868;2022-10-31T04:58:00;100815.72;;;11.58;100.00
33075;BME280;19433;51.292;6.868;2022-10-31T05:00:26;100823.72;;;11.74;100.00
33075;BME280;19433;51.292;6.868;2022-10-31T05:02:53;100819.47;;;11.44;100.00
33075;BME280;19433;51.292;6.868;2022-10-31T05:05:24;100822.84;;;11.46;100.00
33075;BME280;19433;51.292;6.868;2022-10-31T05:07:51;100814.50;;;11.67;100.00
33075;BME280;19433;51.292;6.868;2022-10-31T05:10:19;100810.22;;;11.64;100.00
33075;BME280;19433;51.292;6.868;2022-10-31T05:12:52;100792.81;;;11.71;100.00
33075;BME280;19433;51.292;6.868;2022-10-31T05:15:19;100796.38;;;11.64;100.00
33075;BME280;19433;51.292;6.868;2022-10-31T05:17:44;100795.94;;;11.61;100.00
33075;BME280;19433;51.292;6.868;2022-10-31T05:20:11;100798.66;;;11.54;100.00
33075;BME280;19433;51.292;6.868;2022-10-31T05:22:45;100791.47;;;11.60;100.00
33075;BME280;19433;51.292;6.868;2022-10-31T05:25:11;100793.22;;;11.68;100.00
33075;BME280;19433;51.292;6.868;2022-10-31T05:27:45;100786.53;;;11.55;100.00
33075;BME280;19433;51.292;6.868;2022-10-31T05:30:12;100796.91;;;11.47;100.00
33075;BME280;19433;51.292;6.868;2022-10-31T05:32:42;100797.94;;;11.46;100.00
33075;BME280;19433;51.292;6.868;2022-10-31T05:35:10;100807.84;;;11.61;100.00
33075;BME280;19433;51.292;6.868;2022-10-31T05:37:35;100800.00;;;11.65;100.00
33075;BME280;19433;51.292;6.868;2022-10-31T05:40:03;100804.75;;;11.71;100.00
33075;BME280;19433;51.292;6.868;2022-10-31T05:42:28;100810.66;;;11.68;100.00
33075;BME280;19433;51.292;6.868;2022-10-31T05:44:55;100802.56;;;11.60;100.00
33075;BME280;19433;51.292;6.868;2022-10-31T05:47:20;100814.25;;;11.62;100.00
33075;BME280;19433;51.292;6.868;2022-10-31T05:49:45;100796.69;;;11.48;100.00
33075;BME280;19433;51.292;6.868;2022-10-31T05:52:10;100795.81;;;11.41;100.00
33075;BME280;19433;51.292;6.868;2022-10-31T05:54:36;100797.53;;;11.42;100.00
33075;BME280;19433;51.292;6.868;2022-10-31T05:57:01;100797.00;;;11.60;100.00
33075;BME280;19433;51.292;6.868;2022-10-31T05:59:26;100782.09;;;11.61;100.00
33075;BME280;19433;51.292;6.868;2022-10-31T06:01:51;100777.50;;;11.40;100.00
33075;BME280;19433;51.292;6.868;2022-10-31T06:04:17;100780.22;;;11.34;100.00
33075;BME280;19433;51.292;6.868;2022-10-31T06:06:42;100790.03;;;11.36;100.00
33075;BME280;19433;51.292;6.868;2022-10-31T06:09:07;100782.69;;;11.22;100.00
33075;BME280;19433;51.292;6.868;2022-10-31T06:11:33;100775.84;;;11.18;100.00
33075;BME280;19433;51.292;6.868;2022-10-31T06:13:58;100781.63;;;11.23;100.00
33075;BME280;19433;51.292;6.868;2022-10-31T06:16:23;100780.56;;;11.52;100.00
33075;BME280;19433;51.292;6.868;2022-10-31T06:18:48;100780.09;;;11.48;100.00
33075;BME280;19433;51.292;6.868;2022-10-31T06:21:14;100775.28;;;11.57;100.00
33075;BME280;19433;51.292;6.868;2022-10-31T06:23:39;100782.94;;;11.61;100.00
33075;BME280;19433;51.292;6.868;2022-10-31T06:26:04;100790.63;;;11.59;100.00
33075;BME280;19433;51.292;6.868;2022-10-31T06:28:29;100787.13;;;11.79;100.00
33075;BME280;19433;51.292;6.868;2022-10-31T06:30:55;100784.50;;;11.71;100.00
33075;BME280;19433;51.292;6.868;2022-10-31T06:33:20;100782.78;;;11.70;100.00
33075;BME280;19433;51.292;6.868;2022-10-31T06:35:46;100777.41;;;11.61;100.00
33075;BME280;19433;51.292;6.868;2022-10-31T06:38:12;100784.06;;;11.67;100.00
33075;BME280;19433;51.292;6.868;2022-10-31T06:40:37;100791.75;;;11.72;100.00
33075;BME280;19433;51.292;6.868;2022-10-31T06:43:02;100770.75;;;11.84;100.00
33075;BME280;19433;51.292;6.868;2022-10-31T06:45:28;100793.31;;;11.81;100.00
33075;BME280;19433;51.292;6.868;2022-10-31T06:47:54;100803.72;;;11.79;100.00
33075;BME280;19433;51.292;6.868;2022-10-31T06:50:21;100801.47;;;11.89;100.00
33075;BME280;19433;51.292;6.868;2022-10-31T06:52:51;100777.75;;;11.80;100.00
33075;BME280;19433;51.292;6.868;2022-10-31T06:55:16;100782.31;;;11.94;100.00
33075;BME280;19433;51.292;6.868;2022-10-31T06:57:41;100793.22;;;12.09;100.00
33075;BME280;19433;51.292;6.868;2022-10-31T07:00:07;100787.47;;;12.04;100.00
33075;BME280;19433;51.292;6.868;2022-10-31T07:02:33;100783.50;;;12.19;100.00
33075;BME280;19433;51.292;6.868;2022-10-31T07:04:58;100797.91;;;12.08;100.00
33075;BME280;19433;51.292;6.868;2022-10-31T07:07:23;100791.75;;;12.13;100.00
33075;BME280;19433;51.292;6.868;2022-10-31T07:09:49;100788.13;;;12.12;100.00
33075;BME280;19433;51.292;6.868;2022-10-31T07:12:15;100808.63;;;12.24;100.00
33075;BME280;19433;51.292;6.868;2022-10-31T07:14:41;100794.63;;;12.39;100.00
33075;BME280;19433;51.292;6.868;2022-10-31T07:17:06;100813.00;;;12.47;100.00
33075;BME280;19433;51.292;6.868;2022-10-31T07:19:31;100807.69;;;12.52;100.00
33075;BME280;19433;51.292;6.868;2022-10-31T07:21:57;100806.59;;;12.53;100.00
33075;BME280;19433;51.292;6.868;2022-10-31T07:24:22;100813.66;;;12.68;100.00
33075;BME280;19433;51.292;6.868;2022-10-31T07:26:47;100821.38;;;12.66;100.00
33075;BME280;19433;51.292;6.868;2022-10-31T07:29:14;100818.34;;;12.68;100.00
33075;BME280;19433;51.292;6.868;2022-10-31T07:31:39;100807.50;;;12.73;100.00
33075;BME280;19433;51.292;6.868;2022-10-31T07:34:04;100815.00;;;12.86;100.00
33075;BME280;19433;51.292;6.868;2022-10-31T07:36:30;100811.16;;;12.87;100.00
33075;BME280;19433;51.292;6.868;2022-10-31T07:38:55;100813.09;;;12.93;100.00
33075;BME280;19433;51.292;6.868;2022-10-31T07:41:21;100809.25;;;13.00;100.00
33075;BME280;19433;51.292;6.868;2022-10-31T07:43:46;100803.72;;;12.94;100.00
33075;BME280;19433;51.292;6.868;2022-10-31T07:46:11;100808.19;;;13.08;100.00
33075;BME280;19433;51.292;6.868;2022-10-31T07:48:37;100812.06;;;13.20;100.00
33075;BME280;19433;51.292;6.868;2022-10-31T07:51:02;100816.34;;;13.36;100.00
33075;BME280;19433;51.292;6.868;2022-10-31T07:53:27;100808.19;;;13.61;100.00
33075;BME280;19433;51.292;6.868;2022-10-31T07:55:52;100826.94;;;13.85;100.00
33075;BME280;19433;51.292;6.868;2022-10-31T07:58:18;100826.91;;;13.98;100.00
33075;BME280;19433;51.292;6.868;2022-10-31T08:00:45;100837.16;;;13.91;100.00
33075;BME280;19433;51.292;6.868;2022-10-31T08:03:13;100830.13;;;13.95;99.68
33075;BME280;19433;51.292;6.868;2022-10-31T08:05:39;100835.78;;;14.27;100.00
33075;BME280;19433;51.292;6.868;2022-10-31T08:08:06;100830.63;;;14.43;98.78
33075;BME280;19433;51.292;6.868;2022-10-31T08:10:32;100825.09;;;14.75;96.76
33075;BME280;19433;51.292;6.868;2022-10-31T08:12:59;100836.56;;;14.85;96.22
33075;BME280;19433;51.292;6.868;2022-10-31T08:15:25;100831.94;;;14.79;95.92
33075;BME280;19433;51.292;6.868;2022-10-31T08:17:52;100822.84;;;14.90;95.86
33075;BME280;19433;51.292;6.868;2022-10-31T08:20:18;100818.69;;;15.31;93.68
33075;BME280;19433;51.292;6.868;2022-10-31T08:22:52;100822.22;;;15.69;92.61
33075;BME280;19433;51.292;6.868;2022-10-31T08:25:18;100828.00;;;16.11;89.32
33075;BME280;19433;51.292;6.868;2022-10-31T08:27:48;100821.09;;;16.32;87.83
33075;BME280;19433;51.292;6.868;2022-10-31T08:30:13;100818.56;;;16.60;87.21
33075;BME280;19433;51.292;6.868;2022-10-31T08:32:39;100826.78;;;17.03;83.90
33075;BME280;19433;51.292;6.868;2022-10-31T08:35:04;100823.53;;;17.30;82.37
33075;BME280;19433;51.292;6.868;2022-10-31T08:37:29;100828.75;;;17.68;79.96
33075;BME280;19433;51.292;6.868;2022-10-31T08:39:55;100830.53;;;18.09;77.99
33075;BME280;19433;51.292;6.868;2022-10-31T08:42:20;100833.59;;;17.96;77.11
33075;BME280;19433;51.292;6.868;2022-10-31T08:44:45;100820.16;;;18.33;75.84
33075;BME280;19433;51.292;6.868;2022-10-31T08:47:10;100825.13;;;18.42;75.42
33075;BME280;19433;51.292;6.868;2022-10-31T08:49:36;100815.41;;;18.33;74.98
33075;BME280;19433;51.292;6.868;2022-10-31T08:52:01;100816.41;;;18.04;75.62
33075;BME280;19433;51.292;6.868;2022-10-31T08:54:26;100820.44;;;18.08;75.67
33075;BME280;19433;51.292;6.868;2022-10-31T08:56:55;100813.03;;;18.13;75.53
33075;BME280;19433;51.292;6.868;2022-10-31T08:59:20;100805.59;;;18.07;74.76
33075;BME280;19433;51.292;6.868;2022-10-31T09:01:46;100811.44;;;18.17;76.46
33075;BME280;19433;51.292;6.868;2022-10-31T09:04:11;100801.16;;;18.46;75.26
33075;BME280;19433;51.292;6.868;2022-10-31T09:06:36;100811.13;;;18.82;73.51
33075;BME280;19433;51.292;6.868;2022-10-31T09:09:02;100814.97;;;18.93;73.45
33075;BME280;19433;51.292;6.868;2022-10-31T09:11:29;100800.50;;;19.29;71.78
33075;BME280;19433;51.292;6.868;2022-10-31T09:13:55;100807.81;;;19.47;70.95
33075;BME280;19433;51.292;6.868;2022-10-31T09:16:20;100805.94;;;19.36;70.97
33075;BME280;19433;51.292;6.868;2022-10-31T09:18:45;100803.38;;;19.18;71.48
33075;BME280;19433;51.292;6.868;2022-10-31T09:21:10;100799.28;;;19.54;71.12
33075;BME280;19433;51.292;6.868;2022-10-31T09:23:36;100808.34;;;19.61;69.55
33075;BME280;19433;51.292;6.868;2022-10-31T09:26:02;100799.25;;;19.71;69.70
33075;BME280;19433;51.292;6.868;2022-10-31T09:28:27;100784.88;;;19.33;70.28
33075;BME280;19433;51.292;6.868;2022-10-31T09:30:53;100784.19;;;19.10;71.98
33075;BME280;19433;51.292;6.868;2022-10-31T09:33:19;100781.66;;;19.08;70.91
33075;BME280;19433;51.292;6.868;2022-10-31T09:35:44;100777.03;;;18.85;73.17
33075;BME280;19433;51.292;6.868;2022-10-31T09:38:15;100777.44;;;18.77;73.76
33075;BME280;19433;51.292;6.868;2022-10-31T09:41:12;100788.31;;;18.90;73.90
33075;BME280;19433;51.292;6.868;2022-10-31T09:43:52;100780.81;;;19.08;73.33
33075;BME280;19433;51.292;6.868;2022-10-31T09:52:08;100764.75;;;22.12;62.63
33075;BME280;19433;51.292;6.868;2022-10-31T09:54:41;100766.50;;;23.62;57.27
33075;BME280;19433;51.292;6.868;2022-10-31T09:57:12;100758.88;;;23.72;56.04
33075;BME280;19433;51.292;6.868;2022-10-31T09:59:40;100756.28;;;23.91;54.64
33075;BME280;19433;51.292;6.868;2022-10-31T10:02:19;100757.09;;;24.02;55.37
33075;BME280;19433;51.292;6.868;2022-10-31T10:05:02;100763.50;;;24.43;53.38
33075;BME280;19433;51.292;6.868;2022-10-31T10:09:59;100763.94;;;23.70;55.78
33075;BME280;19433;51.292;6.868;2022-10-31T10:12:38;100767.59;;;23.71;55.96
33075;BME280;19433;51.292;6.868;2022-10-31T10:15:28;100759.72;;;23.78;55.40
33075;BME280;19433;51.292;6.868;2022-10-31T10:27:13;100742.91;;;27.81;43.35
33075;BME280;19433;51.292;6.868;2022-10-31T10:29:52;100735.22;;;25.65;47.92
33075;BME280;19433;51.292;6.868;2022-10-31T10:32:27;100730.81;;;24.27;52.15
33075;BME280;19433;51.292;6.868;2022-10-31T10:35:17;100720.53;;;23.31;55.62
33075;BME280;19433;51.292;6.868;2022-10-31T10:37:46;100720.50;;;22.80;57.60
33075;BME280;19433;51.292;6.868;2022-10-31T10:40:23;100709.91;;;22.25;58.87
33075;BME280;19433;51.292;6.868;2022-10-31T10:43:01;100706.41;;;21.50;62.89
33075;BME280;19433;51.292;6.868;2022-10-31T10:46:00;100692.91;;;20.83;65.23
33075;BME280;19433;51.292;6.868;2022-10-31T10:51:23;100685.47;;;20.18;68.49
33075;BME280;19433;51.292;6.868;2022-10-31T10:53:59;100681.81;;;20.18;69.68
33075;BME280;19433;51.292;6.868;2022-10-31T10:59:09;100663.59;;;20.20;72.04
33075;BME280;19433;51.292;6.868;2022-10-31T11:01:36;100657.06;;;20.63;69.84
33075;BME280;19433;51.292;6.868;2022-10-31T11:04:02;100654.81;;;21.29;65.73
33075;BME280;19433;51.292;6.868;2022-10-31T11:06:28;100643.56;;;21.76;62.51
33075;BME280;19433;51.292;6.868;2022-10-31T11:08:53;100653.34;;;22.26;61.04
33075;BME280;19433;51.292;6.868;2022-10-31T11:11:31;100652.06;;;23.00;58.11
33075;BME280;19433;51.292;6.868;2022-10-31T11:14:12;100666.38;;;23.64;54.77
33075;BME280;19433;51.292;6.868;2022-10-31T11:16:52;100665.50;;;24.38;53.53
33075;BME280;19433;51.292;6.868;2022-10-31T11:19:22;100662.28;;;24.55;53.64
33075;BME280;19433;51.292;6.868;2022-10-31T11:21:49;100651.72;;;24.22;53.55
33075;BME280;19433;51.292;6.868;2022-10-31T11:24:17;100640.50;;;23.22;56.20
33075;BME280;19433;51.292;6.868;2022-10-31T11:26:46;100639.88;;;22.49;57.43
33075;BME280;19433;51.292;6.868;2022-10-31T11:31:51;100624.50;;;21.94;59.11
33075;BME280;19433;51.292;6.868;2022-10-31T11:36:54;100628.19;;;21.94;58.26
33075;BME280;19433;51.292;6.868;2022-10-31T11:39:23;100628.88;;;22.27;58.21
33075;BME280;19433;51.292;6.868;2022-10-31T11:41:51;100620.72;;;22.40;57.48
33075;BME280;19433;51.292;6.868;2022-10-31T11:44:20;100625.56;;;22.75;57.76
33075;BME280;19433;51.292;6.868;2022-10-31T11:46:50;100617.97;;;23.01;55.82
33075;BME280;19433;51.292;6.868;2022-10-31T11:51:53;100627.81;;;22.94;55.29
33075;BME280;19433;51.292;6.868;2022-10-31T11:54:23;100605.81;;;22.70;55.46
33075;BME280;19433;51.292;6.868;2022-10-31T11:56:49;100618.16;;;22.34;55.98
33075;BME280;19433;51.292;6.868;2022-10-31T11:59:23;100593.91;;;22.07;58.10
33075;BME280;19433;51.292;6.868;2022-10-31T12:01:50;100579.31;;;21.48;58.66
33075;BME280;19433;51.292;6.868;2022-10-31T12:04:16;100568.84;;;21.33;61.23
33075;BME280;19433;51.292;6.868;2022-10-31T12:06:46;100566.16;;;21.06;61.32
33075;BME280;19433;51.292;6.868;2022-10-31T12:09:28;100561.81;;;20.89;61.26
33075;BME280;19433;51.292;6.868;2022-10-31T12:14:40;100567.13;;;21.27;60.84
33075;BME280;19433;51.292;6.868;2022-10-31T12:17:15;100552.66;;;21.08;60.41
33075;BME280;19433;51.292;6.868;2022-10-31T12:33:00;100529.16;;;21.97;56.10
33075;BME280;19433;51.292;6.868;2022-10-31T12:44:36;100514.66;;;23.46;51.76
33075;BME280;19433;51.292;6.868;2022-10-31T12:56:15;100503.31;;;22.26;54.43
33075;BME280;19433;51.292;6.868;2022-10-31T12:58:26;100496.78;;;21.95;55.77
33075;BME280;19433;51.292;6.868;2022-10-31T13:01:11;100480.69;;;21.70;56.62
33075;BME280;19433;51.292;6.868;2022-10-31T13:03:52;100483.50;;;21.60;56.57
33075;BME280;19433;51.292;6.868;2022-10-31T13:06:23;100475.59;;;21.47;57.08
33075;BME280;19433;51.292;6.868;2022-10-31T13:09:11;100460.63;;;21.26;55.92
33075;BME280;19433;51.292;6.868;2022-10-31T13:11:45;100451.81;;;21.07;57.50
33075;BME280;19433;51.292;6.868;2022-10-31T13:14:25;100443.31;;;20.92;57.76
33075;BME280;19433;51.292;6.868;2022-10-31T13:16:53;100434.81;;;20.82;57.69
33075;BME280;19433;51.292;6.868;2022-10-31T13:19:34;100419.19;;;20.44;59.75
33075;BME280;19433;51.292;6.868;2022-10-31T13:22:18;100415.88;;;20.57;59.42
33075;BME280;19433;51.292;6.868;2022-10-31T13:25:13;100398.44;;;20.13;62.76
33075;BME280;19433;51.292;6.868;2022-10-31T13:27:47;100397.91;;;20.16;62.46
33075;BME280;19433;51.292;6.868;2022-10-31T13:30:19;100391.28;;;19.95;63.40
33075;BME280;19433;51.292;6.868;2022-10-31T13:40:48;100388.28;;;20.07;60.70
33075;BME280;19433;51.292;6.868;2022-10-31T13:43:22;100400.47;;;20.22;61.12
33075;BME280;19433;51.292;6.868;2022-10-31T13:45:51;100403.22;;;20.17;61.39
33075;BME280;19433;51.292;6.868;2022-10-31T13:51:04;100388.97;;;20.24;60.14
33075;BME280;19433;51.292;6.868;2022-10-31T13:53:42;100380.78;;;20.17;60.17
33075;BME280;19433;51.292;6.868;2022-10-31T13:58:34;100365.38;;;20.20;59.93
33075;BME280;19433;51.292;6.868;2022-10-31T14:01:21;100349.09;;;20.17;61.38
33075;BME280;19433;51.292;6.868;2022-10-31T14:07:21;100342.78;;;19.94;61.56
33075;BME280;19433;51.292;6.868;2022-10-31T14:09:33;100335.50;;;19.61;62.69
33075;BME280;19433;51.292;6.868;2022-10-31T14:12:03;100331.09;;;19.39;64.62
33075;BME280;19433;51.292;6.868;2022-10-31T14:14:34;100324.56;;;19.33;64.63
33075;BME280;19433;51.292;6.868;2022-10-31T14:17:01;100332.19;;;19.38;64.14
33075;BME280;19433;51.292;6.868;2022-10-31T14:19:30;100326.53;;;19.32;64.24
33075;BME280;19433;51.292;6.868;2022-10-31T14:21:58;100307.50;;;19.35;63.38
33075;BME280;19433;51.292;6.868;2022-10-31T14:29:26;100298.25;;;19.34;64.62
33075;BME280;19433;51.292;6.868;2022-10-31T14:39:58;100299.63;;;19.31;64.58
33075;BME280;19433;51.292;6.868;2022-10-31T14:46:05;100272.66;;;18.93;65.08